createdAt,value
2023-01-28T00:01:42.947Z,15.68
2023-01-28T00:04:10.907Z,15.73
2023-01-28T00:06:39.447Z,15.23
2023-01-28T00:09:07.680Z,15.10
2023-01-28T00:11:35.161Z,15.43
2023-01-28T00:14:04.754Z,15.80
2023-01-28T00:16:32.539Z,15.27
2023-01-28T00:19:00.198Z,14.85
2023-01-28T00:21:27.767Z,15.82
2023-01-28T00:23:57.024Z,14.65
2023-01-28T00:26:25.864Z,15.15
2023-01-28T00:28:53.715Z,14.52
2023-01-28T00:31:27.099Z,14.85
2023-01-28T00:33:56.814Z,15.15
2023-01-28T00:36:26.684Z,17.88
2023-01-28T00:39:00.046Z,15.20
2023-01-28T00:41:30.031Z,15.73
2023-01-28T00:43:59.599Z,15.73
2023-01-28T00:46:27.928Z,14.68
2023-01-28T00:48:55.781Z,15.43
2023-01-28T00:51:23.407Z,16.05
2023-01-28T00:53:50.919Z,15.70
2023-01-28T00:56:19.663Z,15.23
2023-01-28T00:58:48.089Z,15.38
2023-01-28T01:01:19.825Z,15.90
2023-01-28T01:03:54.361Z,16.17
2023-01-28T01:06:24.968Z,18.27
2023-01-28T01:08:52.579Z,18.75
2023-01-28T01:11:20.160Z,18.05
2023-01-28T01:13:54.897Z,18.50
2023-01-28T01:16:27.398Z,15.48
2023-01-28T01:18:56.798Z,15.80
2023-01-28T01:21:27.847Z,17.55
2023-01-28T01:23:56.050Z,16.17
2023-01-28T01:26:25.266Z,17.73
2023-01-28T01:28:52.785Z,18.08
2023-01-28T01:31:22.465Z,17.17
2023-01-28T01:33:52.960Z,18.58
2023-01-28T01:36:21.869Z,18.15
2023-01-28T01:38:55.119Z,18.77
2023-01-28T01:41:32.578Z,17.05
2023-01-28T01:44:06.121Z,18.70
2023-01-28T01:46:49.189Z,17.27
2023-01-28T01:49:24.860Z,17.98
2023-01-28T01:52:07.189Z,20.08
2023-01-28T01:54:38.599Z,16.58
2023-01-28T01:57:12.626Z,17.98
2023-01-28T01:59:44.691Z,18.48
2023-01-28T02:02:13.179Z,20.23
2023-01-28T02:04:44.822Z,19.27
2023-01-28T02:07:19.639Z,19.33
2023-01-28T02:09:47.202Z,19.50
2023-01-28T02:12:22.855Z,20.85
2023-01-28T02:15:19.588Z,18.65
2023-01-28T02:17:48.738Z,17.77
2023-01-28T02:21:08.800Z,15.65
2023-01-28T02:24:17.340Z,17.95
2023-01-28T02:27:18.791Z,17.38
2023-01-28T02:30:22.325Z,17.70
2023-01-28T02:32:59.424Z,17.27
2023-01-28T02:35:49.532Z,16.83
2023-01-28T02:38:33.015Z,17.48
2023-01-28T02:41:11.201Z,20.25
2023-01-28T02:43:42.889Z,18.15
2023-01-28T02:46:44.418Z,18.42
2023-01-28T02:49:39.197Z,18.27
2023-01-28T02:52:54.211Z,16.70
2023-01-28T02:55:49.724Z,15.07
2023-01-28T02:58:22.893Z,14.90
2023-01-28T03:01:01.730Z,15.20
2023-01-28T03:03:50.302Z,14.40
2023-01-28T03:06:26.625Z,13.60
2023-01-28T03:09:21.598Z,13.93
2023-01-28T03:12:25.335Z,13.65
2023-01-28T03:15:19.082Z,15.18
2023-01-28T03:18:14.383Z,15.38
2023-01-28T03:21:25.541Z,16.25
2023-01-28T03:24:38.634Z,15.87
2023-01-28T03:27:40.928Z,16.13
2023-01-28T03:30:41.639Z,18.15
2023-01-28T03:33:35.478Z,17.58
2023-01-28T03:36:22.284Z,14.55
2023-01-28T03:38:50.170Z,15.73
2023-01-28T03:41:25.432Z,16.50
2023-01-28T03:43:56.093Z,15.68
2023-01-28T03:46:23.757Z,16.42
2023-01-28T03:48:51.301Z,14.63
2023-01-28T03:51:19.035Z,15.18
2023-01-28T03:53:46.555Z,14.30
2023-01-28T03:56:18.310Z,14.15
2023-01-28T04:01:25.520Z,13.27
2023-01-28T04:03:53.649Z,14.25
2023-01-28T04:06:26.621Z,13.05
2023-01-28T04:09:17.104Z,13.30
2023-01-28T04:11:56.237Z,13.38
2023-01-28T04:14:30.364Z,11.40
2023-01-28T04:17:07.401Z,13.18
2023-01-28T04:19:37.374Z,13.20
2023-01-28T04:22:12.016Z,12.73
2023-01-28T04:24:41.184Z,12.95
2023-01-28T04:27:09.462Z,13.02
2023-01-28T04:29:37.044Z,13.25
2023-01-28T04:32:27.706Z,12.98
2023-01-28T04:35:09.898Z,12.23
2023-01-28T04:38:01.593Z,14.48
2023-01-28T04:40:53.325Z,12.40
2023-01-28T04:43:27.234Z,11.25
2023-01-28T04:46:10.036Z,12.68
2023-01-28T04:48:43.551Z,11.88
2023-01-28T04:51:30.260Z,11.05
2023-01-28T04:54:12.852Z,11.93
2023-01-28T04:56:41.487Z,10.77
2023-01-28T04:59:10.167Z,12.40
2023-01-28T05:01:38.897Z,12.00
2023-01-28T05:04:07.865Z,11.50
2023-01-28T05:06:39.188Z,12.20
2023-01-28T05:09:10.728Z,11.02
2023-01-28T05:11:39.363Z,12.57
2023-01-28T05:14:08.466Z,11.80
2023-01-28T05:16:56.285Z,11.70
2023-01-28T05:19:24.092Z,10.60
2023-01-28T05:21:51.765Z,10.82
2023-01-28T05:24:27.100Z,11.88
2023-01-28T05:26:54.866Z,12.95
2023-01-28T05:29:22.608Z,11.82
2023-01-28T05:31:50.147Z,11.48
2023-01-28T05:34:18.202Z,11.75
2023-01-28T05:36:45.998Z,10.63
2023-01-28T05:39:33.757Z,10.57
2023-01-28T05:42:01.350Z,11.05
2023-01-28T05:44:30.043Z,10.88
2023-01-28T05:47:36.278Z,10.73
2023-01-28T05:50:24.749Z,9.80
2023-01-28T05:53:12.778Z,11.45
2023-01-28T05:55:43.091Z,10.40
2023-01-28T05:58:10.772Z,11.07
2023-01-28T06:00:38.367Z,11.55
2023-01-28T06:03:06.397Z,10.52
2023-01-28T06:05:36.347Z,11.48
2023-01-28T06:08:05.077Z,10.50
2023-01-28T06:10:32.854Z,10.43
2023-01-28T06:13:00.525Z,10.10
2023-01-28T06:15:51.220Z,10.52
2023-01-28T06:18:47.932Z,10.07
2023-01-28T06:21:15.480Z,10.68
2023-01-28T06:23:43.016Z,10.52
2023-01-28T06:26:10.822Z,10.77
2023-01-28T06:28:41.488Z,10.90
2023-01-28T06:31:09.208Z,10.60
2023-01-28T06:33:36.702Z,10.90
2023-01-28T06:36:06.759Z,11.07
2023-01-28T06:38:35.062Z,9.85
2023-01-28T06:41:02.677Z,11.32
2023-01-28T06:43:30.860Z,11.40
2023-01-28T06:46:01.006Z,12.40
2023-01-28T06:48:29.176Z,11.82
2023-01-28T06:50:56.739Z,12.65
2023-01-28T06:53:24.396Z,12.40
2023-01-28T06:55:51.871Z,14.18
2023-01-28T06:58:19.337Z,11.00
2023-01-28T07:00:46.883Z,12.57
2023-01-28T07:03:14.476Z,12.98
2023-01-28T07:05:42.054Z,13.10
2023-01-28T07:08:09.571Z,11.85
2023-01-28T07:10:37.058Z,12.82
2023-01-28T07:13:04.572Z,12.73
2023-01-28T07:15:32.030Z,13.73
2023-01-28T07:17:59.797Z,11.90
2023-01-28T07:20:27.451Z,13.48
2023-01-28T07:22:55.091Z,12.52
2023-01-28T07:25:22.604Z,13.23
2023-01-28T07:27:53.505Z,12.88
2023-01-28T07:30:21.818Z,14.05
2023-01-28T07:32:54.829Z,13.90
2023-01-28T07:35:23.081Z,13.93
2023-01-28T07:37:56.507Z,15.35
2023-01-28T07:40:25.909Z,16.27
2023-01-28T07:42:55.496Z,14.80
2023-01-28T07:45:25.741Z,16.17
2023-01-28T07:48:06.848Z,15.73
2023-01-28T07:50:37.384Z,14.30
2023-01-28T07:53:08.222Z,16.40
2023-01-28T07:55:36.090Z,16.03
2023-01-28T07:58:08.217Z,15.05
2023-01-28T08:00:37.857Z,14.68
2023-01-28T08:03:12.752Z,16.15
2023-01-28T08:05:53.136Z,15.98
2023-01-28T08:08:21.142Z,15.55
2023-01-28T08:10:48.890Z,15.55
2023-01-28T08:13:18.449Z,15.40
2023-01-28T08:15:47.417Z,15.05
2023-01-28T08:18:17.545Z,14.90
2023-01-28T08:20:47.204Z,16.55
2023-01-28T08:23:19.752Z,16.73
2023-01-28T08:25:48.427Z,16.75
2023-01-28T08:28:17.413Z,18.27
2023-01-28T08:30:45.871Z,16.23
2023-01-28T08:33:16.366Z,15.95
2023-01-28T08:35:44.330Z,16.88
2023-01-28T08:38:18.080Z,15.90
2023-01-28T08:40:45.713Z,15.60
2023-01-28T08:43:13.624Z,15.23
2023-01-28T08:45:41.566Z,15.10
2023-01-28T08:48:16.045Z,16.52
2023-01-28T08:50:44.084Z,15.15
2023-01-28T08:53:19.127Z,15.48
2023-01-28T08:55:47.689Z,16.73
2023-01-28T08:58:18.266Z,16.48
2023-01-28T09:00:46.766Z,16.92
2023-01-28T09:03:14.263Z,15.45
2023-01-28T09:05:42.231Z,17.02
2023-01-28T09:08:15.318Z,18.70
2023-01-28T09:10:43.099Z,16.65
2023-01-28T09:13:16.005Z,16.17
2023-01-28T09:15:44.206Z,17.63
2023-01-28T09:18:11.796Z,17.50
2023-01-28T09:20:40.131Z,17.40
2023-01-28T09:23:08.282Z,17.10
2023-01-28T09:25:36.335Z,16.40
2023-01-28T09:28:04.855Z,15.68
2023-01-28T09:30:34.417Z,15.70
2023-01-28T09:33:03.281Z,16.58
2023-01-28T09:35:30.834Z,17.27
2023-01-28T09:37:59.067Z,16.13
2023-01-28T09:40:44.412Z,15.70
2023-01-28T09:43:57.138Z,16.58
2023-01-28T09:46:34.294Z,16.17
2023-01-28T09:49:38.987Z,16.13
2023-01-28T09:52:17.065Z,15.60
2023-01-28T09:55:07.110Z,16.17
2023-01-28T09:57:50.241Z,17.40
2023-01-28T10:00:29.137Z,15.57
2023-01-28T10:03:25.627Z,16.90
2023-01-28T10:06:15.003Z,16.80
2023-01-28T10:09:18.044Z,14.60
2023-01-28T10:12:05.883Z,17.30
2023-01-28T10:15:13.529Z,16.65
2023-01-28T10:17:49.766Z,16.80
2023-01-28T10:20:36.193Z,17.80
2023-01-28T10:23:16.502Z,18.58
2023-01-28T10:25:48.335Z,16.10
2023-01-28T10:28:25.134Z,15.48
2023-01-28T10:30:52.901Z,15.50
2023-01-28T10:33:40.146Z,15.98
2023-01-28T10:36:10.035Z,15.32
2023-01-28T10:38:37.845Z,15.23
2023-01-28T10:41:08.773Z,15.13
2023-01-28T10:43:42.588Z,14.57
2023-01-28T10:46:21.242Z,13.77
2023-01-28T10:53:09.354Z,13.07
2023-01-28T10:55:58.322Z,13.13
2023-01-28T10:58:31.081Z,13.80
2023-01-28T11:01:03.080Z,14.90
2023-01-28T11:03:30.965Z,13.98
2023-01-28T11:05:59.517Z,14.57
2023-01-28T11:08:30.170Z,12.40
2023-01-28T11:10:58.231Z,14.47
2023-01-28T11:13:31.089Z,12.98
2023-01-28T11:16:07.430Z,13.23
2023-01-28T11:19:05.253Z,13.60
2023-01-28T11:21:35.644Z,12.38
2023-01-28T11:24:19.980Z,13.73
2023-01-28T11:26:53.216Z,13.13
2023-01-28T11:29:38.873Z,12.38
2023-01-28T11:32:19.052Z,11.43
2023-01-28T11:34:54.015Z,12.40
2023-01-28T11:37:24.490Z,12.30
2023-01-28T11:40:21.784Z,12.27
2023-01-28T11:42:59.722Z,11.40
2023-01-28T11:45:51.243Z,12.45
2023-01-28T11:49:15.845Z,11.45
2023-01-28T11:51:58.979Z,11.98
2023-01-28T11:54:51.168Z,11.82
2023-01-28T11:57:46.703Z,12.95
2023-01-28T12:00:38.280Z,12.35
2023-01-28T12:03:41.523Z,13.23
2023-01-28T12:06:42.641Z,13.20
2023-01-28T12:09:49.849Z,15.18
2023-01-28T12:12:57.136Z,13.85
2023-01-28T12:15:39.636Z,14.93
2023-01-28T12:18:36.976Z,14.25
2023-01-28T12:21:10.652Z,14.30
2023-01-28T12:24:14.056Z,14.77
2023-01-28T12:27:31.372Z,14.23
2023-01-28T12:30:23.062Z,13.48
2023-01-28T12:33:17.448Z,13.15
2023-01-28T12:36:13.818Z,12.65
2023-01-28T12:39:38.793Z,13.20
2023-01-28T12:42:20.349Z,12.95
2023-01-28T12:45:00.668Z,12.98
2023-01-28T12:47:41.309Z,13.40
2023-01-28T12:50:25.162Z,13.20
2023-01-28T12:53:23.309Z,13.57
2023-01-28T12:56:17.486Z,12.88
2023-01-28T12:58:58.769Z,12.90
2023-01-28T13:01:59.871Z,14.02
2023-01-28T13:04:42.226Z,12.55
2023-01-28T13:07:26.539Z,13.25
2023-01-28T13:10:04.823Z,13.23
2023-01-28T13:12:34.106Z,13.80
2023-01-28T13:15:02.550Z,15.65
2023-01-28T13:17:32.475Z,13.88
2023-01-28T13:20:00.722Z,15.32
2023-01-28T13:22:35.131Z,15.52
2023-01-28T13:25:24.978Z,13.85
2023-01-28T13:28:24.700Z,14.00
2023-01-28T13:30:53.532Z,13.20
2023-01-28T13:33:32.833Z,13.80
2023-01-28T13:36:17.024Z,12.95
2023-01-28T13:38:46.474Z,12.73
2023-01-28T13:41:13.969Z,18.05
2023-01-28T13:43:42.920Z,13.18
2023-01-28T13:46:29.080Z,12.20
2023-01-28T13:48:59.544Z,12.90
2023-01-28T13:51:37.711Z,13.65
2023-01-28T13:54:21.272Z,12.30
2023-01-28T13:57:46.145Z,12.95
2023-01-28T14:00:31.945Z,12.95
2023-01-28T14:03:20.808Z,14.50
2023-01-28T14:07:01.898Z,14.20
2023-01-28T14:10:08.246Z,14.20
2023-01-28T14:13:22.538Z,12.80
2023-01-28T14:16:22.527Z,12.82
2023-01-28T14:18:51.758Z,13.13
2023-01-28T14:21:22.390Z,13.40
2023-01-28T14:23:54.149Z,13.60
2023-01-28T14:29:25.864Z,15.15
2023-01-28T14:31:55.479Z,14.18
2023-01-28T14:34:37.307Z,13.88
2023-01-28T14:37:12.188Z,15.05
2023-01-28T14:39:45.287Z,13.25
2023-01-28T14:42:27.096Z,15.15
2023-01-28T14:48:32.829Z,14.57
2023-01-28T14:51:47.911Z,13.10
2023-01-28T14:54:40.832Z,16.48
2023-01-28T14:57:37.760Z,13.30
2023-01-28T15:00:21.041Z,14.55
2023-01-28T15:02:49.084Z,15.45
2023-01-28T15:05:27.683Z,13.60
2023-01-28T15:07:56.539Z,13.98
2023-01-28T15:10:33.075Z,11.98
2023-01-28T15:13:25.387Z,15.48
2023-01-28T15:16:00.651Z,17.38
2023-01-28T15:18:44.787Z,14.05
2023-01-28T15:21:12.502Z,14.63
2023-01-28T15:23:43.335Z,14.27
2023-01-28T15:26:17.181Z,12.57
2023-01-28T15:28:47.661Z,14.88
2023-01-28T15:31:39.087Z,15.02
2023-01-28T15:34:13.779Z,14.45
2023-01-28T15:36:42.648Z,13.98
2023-01-28T15:39:20.847Z,16.13
2023-01-28T15:42:01.040Z,15.73
2023-01-28T15:44:38.988Z,15.52
2023-01-28T15:47:32.379Z,14.38
2023-01-28T15:50:07.244Z,15.32
2023-01-28T15:52:43.076Z,16.15
2023-01-28T15:55:39.210Z,16.48
2023-01-28T15:58:19.012Z,14.13
2023-01-28T16:00:48.667Z,15.65
2023-01-28T16:03:22.094Z,16.90
2023-01-28T16:06:07.309Z,15.93
2023-01-28T16:08:39.356Z,15.27
2023-01-28T16:11:10.008Z,15.83
2023-01-28T16:13:44.278Z,14.73
2023-01-28T16:16:12.611Z,16.35
2023-01-28T16:18:51.801Z,15.63
2023-01-28T16:21:26.105Z,15.63
2023-01-28T16:24:21.762Z,16.13
2023-01-28T16:27:05.426Z,19.17
2023-01-28T16:29:33.447Z,19.02
2023-01-28T16:32:03.198Z,17.73
2023-01-28T16:34:30.823Z,18.00
2023-01-28T16:37:00.695Z,16.20
2023-01-28T16:39:28.377Z,17.20
2023-01-28T16:41:56.934Z,17.27
2023-01-28T16:44:24.442Z,18.35
2023-01-28T16:46:52.056Z,33.90
2023-01-28T16:49:19.606Z,33.95
2023-01-28T16:51:47.131Z,23.80
2023-01-28T16:54:16.654Z,20.38
2023-01-28T16:56:47.631Z,21.95
2023-01-28T16:59:16.831Z,22.55
2023-01-28T17:01:45.421Z,23.20
2023-01-28T17:04:13.884Z,20.60
2023-01-28T17:06:44.535Z,20.70
2023-01-28T17:09:14.538Z,21.57
2023-01-28T17:11:42.063Z,22.27
2023-01-28T17:14:10.974Z,23.30
2023-01-28T17:16:39.131Z,24.45
2023-01-28T17:19:06.782Z,25.35
2023-01-28T17:21:34.498Z,21.30
2023-01-28T17:24:03.059Z,22.25
2023-01-28T17:26:31.320Z,22.20
2023-01-28T17:28:58.813Z,20.27
2023-01-28T17:31:26.880Z,20.25
2023-01-28T17:33:56.774Z,20.52
2023-01-28T17:36:26.603Z,19.67
2023-01-28T17:38:55.292Z,21.85
2023-01-28T17:41:23.075Z,22.17
2023-01-28T17:43:55.961Z,21.77
2023-01-28T17:46:25.632Z,21.20
2023-01-28T17:48:53.607Z,21.05
2023-01-28T17:51:21.592Z,22.13
2023-01-28T17:53:52.835Z,23.80
2023-01-28T17:56:25.954Z,22.70
2023-01-28T17:58:59.113Z,26.00
2023-01-28T18:01:27.169Z,23.17
2023-01-28T18:03:55.608Z,24.70
2023-01-28T18:06:23.457Z,24.73
2023-01-28T18:08:51.504Z,24.38
2023-01-28T18:11:19.989Z,26.20
2023-01-28T18:13:47.554Z,25.33
2023-01-28T18:16:20.757Z,23.02
2023-01-28T18:18:50.133Z,22.75
2023-01-28T18:21:42.865Z,24.52
2023-01-28T18:24:18.072Z,25.23
2023-01-28T18:26:45.630Z,24.75
2023-01-28T18:29:16.873Z,23.30
2023-01-28T18:31:44.773Z,25.42
2023-01-28T18:34:12.283Z,25.88
2023-01-28T18:36:39.907Z,25.52
2023-01-28T18:39:09.851Z,27.05
2023-01-28T18:41:37.379Z,27.00
2023-01-28T18:44:05.298Z,33.45
2023-01-28T18:46:32.827Z,28.48
2023-01-28T18:49:00.352Z,30.60
2023-01-28T18:51:30.458Z,28.85
2023-01-28T18:54:05.489Z,29.15
2023-01-28T18:56:33.567Z,31.00
2023-01-28T18:59:03.971Z,30.05
2023-01-28T19:01:33.937Z,28.60
2023-01-28T19:04:02.760Z,28.17
2023-01-28T19:06:31.565Z,27.05
2023-01-28T19:09:03.387Z,26.48
2023-01-28T19:11:30.965Z,26.05
2023-01-28T19:13:59.025Z,26.98
2023-01-28T19:16:26.674Z,24.48
2023-01-28T19:19:00.593Z,24.75
2023-01-28T19:21:30.583Z,27.73
2023-01-28T19:24:02.299Z,27.48
2023-01-28T19:26:32.013Z,30.45
2023-01-28T19:28:59.883Z,30.23
2023-01-28T19:31:28.527Z,29.13
2023-01-28T19:33:59.893Z,33.15
2023-01-28T19:36:31.397Z,31.80
2023-01-28T19:39:01.771Z,28.90
2023-01-28T19:41:29.467Z,30.08
2023-01-28T19:43:58.560Z,32.03
2023-01-28T19:46:26.738Z,34.75
2023-01-28T19:48:55.258Z,33.50
2023-01-28T19:51:23.834Z,31.50
2023-01-28T19:53:54.599Z,30.88
2023-01-28T19:56:24.551Z,30.10
2023-01-28T19:58:54.404Z,31.85
2023-01-28T20:01:30.111Z,29.73
2023-01-28T20:04:00.331Z,27.35
2023-01-28T20:06:32.580Z,33.28
2023-01-28T20:09:14.540Z,34.33
2023-01-28T20:11:42.088Z,35.15
2023-01-28T20:14:09.711Z,37.22
2023-01-28T20:16:37.492Z,32.58
2023-01-28T20:19:12.203Z,29.02
2023-01-28T20:21:39.690Z,27.08
2023-01-28T20:24:07.673Z,28.10
2023-01-28T20:26:38.057Z,27.55
2023-01-28T20:29:13.650Z,29.17
2023-01-28T20:31:42.507Z,28.33
2023-01-28T20:34:17.609Z,29.17
2023-01-28T20:36:46.134Z,26.98
2023-01-28T20:39:14.029Z,27.38
2023-01-28T20:41:41.664Z,30.33
2023-01-28T20:44:09.318Z,32.53
2023-01-28T20:46:38.560Z,30.75
2023-01-28T20:49:06.750Z,27.67
2023-01-28T20:51:36.108Z,27.77
2023-01-28T20:54:05.440Z,26.70
2023-01-28T20:56:33.274Z,27.10
2023-01-28T20:59:05.299Z,26.50
2023-01-28T21:01:35.499Z,26.73
2023-01-28T21:04:05.675Z,27.60
2023-01-28T21:06:34.269Z,29.00
2023-01-28T21:09:03.809Z,25.67
2023-01-28T21:11:31.432Z,26.80
2023-01-28T21:13:59.122Z,25.58
2023-01-28T21:16:28.327Z,27.98
2023-01-28T21:18:55.814Z,30.40
2023-01-28T21:21:27.231Z,27.10
2023-01-28T21:23:57.736Z,27.77
2023-01-28T21:26:26.158Z,33.42
2023-01-28T21:28:53.924Z,33.83
2023-01-28T21:31:25.753Z,32.60
2023-01-28T21:33:56.788Z,30.65
2023-01-28T21:36:26.876Z,27.05
2023-01-28T21:38:59.212Z,26.75
2023-01-28T21:41:28.041Z,28.52
2023-01-28T21:43:57.649Z,25.73
2023-01-28T21:46:29.516Z,26.88
2023-01-28T21:49:00.488Z,28.85
2023-01-28T21:51:46.292Z,30.03
2023-01-28T21:54:18.633Z,32.78
2023-01-28T21:56:49.266Z,35.33
2023-01-28T21:59:30.782Z,39.58
2023-01-28T22:02:10.983Z,30.27
2023-01-28T22:04:43.348Z,31.10
2023-01-28T22:07:17.159Z,28.55
2023-01-28T22:09:46.391Z,27.73
2023-01-28T22:12:15.401Z,30.00
2023-01-28T22:14:43.808Z,26.95
2023-01-28T22:17:12.040Z,28.60
2023-01-28T22:19:39.918Z,29.92
2023-01-28T22:22:07.536Z,28.25
2023-01-28T22:24:35.072Z,29.25
2023-01-28T22:27:02.620Z,29.83
2023-01-28T22:29:30.125Z,27.27
2023-01-28T22:31:57.766Z,33.03
2023-01-28T22:34:26.203Z,35.45
2023-01-28T22:36:53.769Z,32.00
2023-01-28T22:39:21.303Z,32.25
2023-01-28T22:41:48.933Z,31.52
2023-01-28T22:44:16.430Z,30.90
2023-01-28T22:46:44.267Z,32.72
2023-01-28T22:49:12.251Z,34.75
2023-01-28T22:51:39.981Z,33.25
2023-01-28T22:54:08.015Z,31.38
2023-01-28T22:56:35.590Z,34.42
2023-01-28T22:59:04.462Z,34.03
2023-01-28T23:01:32.979Z,31.90
2023-01-28T23:04:00.674Z,34.38
2023-01-28T23:06:29.961Z,33.20
2023-01-28T23:08:57.841Z,33.63
2023-01-28T23:11:27.509Z,33.55
2023-01-28T23:14:20.624Z,30.48
2023-01-28T23:17:08.494Z,31.75
2023-01-28T23:19:55.066Z,33.20
2023-01-28T23:22:47.789Z,31.02
2023-01-28T23:25:16.062Z,33.30
2023-01-28T23:27:45.943Z,32.70
2023-01-28T23:30:15.247Z,33.00
2023-01-28T23:32:48.367Z,32.13
2023-01-28T23:35:16.662Z,33.05
2023-01-28T23:37:44.369Z,35.58
2023-01-28T23:40:14.950Z,32.45
2023-01-28T23:42:42.740Z,34.07
2023-01-28T23:45:10.993Z,33.95
2023-01-28T23:47:38.543Z,33.83
2023-01-28T23:50:07.260Z,34.72
2023-01-28T23:52:34.829Z,33.97
2023-01-28T23:55:03.364Z,36.10
2023-01-28T23:57:32.052Z,33.17
2023-01-28T23:59:59.487Z,32.55
